createdAt,value
2018-12-13T00:01:41.634Z,10.90
2018-12-13T00:04:09.082Z,10.03
2018-12-13T00:06:39.991Z,9.30
2018-12-13T00:09:07.679Z,10.03
2018-12-13T00:11:35.148Z,9.78
2018-12-13T00:14:02.620Z,9.35
2018-12-13T00:16:33.957Z,10.13
2018-12-13T00:19:01.404Z,8.25
2018-12-13T00:21:28.874Z,8.55
2018-12-13T00:23:56.342Z,9.98
2018-12-13T00:26:27.116Z,10.98
2018-12-13T00:28:54.578Z,9.30
2018-12-13T00:31:22.092Z,7.70
2018-12-13T00:33:49.581Z,7.70
2018-12-13T00:36:20.155Z,9.58
2018-12-13T00:38:47.618Z,8.97
2018-12-13T00:41:15.075Z,8.73
2018-12-13T00:43:42.511Z,7.87
2018-12-13T00:46:13.179Z,9.00
2018-12-13T00:48:40.635Z,7.07
2018-12-13T00:51:08.059Z,7.93
2018-12-13T00:53:35.508Z,10.03
2018-12-13T00:56:06.266Z,8.73
2018-12-13T00:58:33.722Z,10.93
2018-12-13T01:01:01.180Z,9.68
2018-12-13T01:03:28.680Z,10.67
2018-12-13T01:05:59.034Z,10.93
2018-12-13T01:08:26.554Z,10.90
2018-12-13T01:10:53.996Z,10.73
2018-12-13T01:13:21.523Z,9.58
2018-12-13T01:15:51.971Z,11.37
2018-12-13T01:18:19.423Z,10.97
2018-12-13T01:20:46.872Z,12.77
2018-12-13T01:23:14.358Z,9.03
2018-12-13T01:25:44.855Z,11.73
2018-12-13T01:28:12.319Z,12.90
2018-12-13T01:30:39.754Z,10.67
2018-12-13T01:33:07.210Z,11.45
2018-12-13T01:35:37.683Z,11.33
2018-12-13T01:38:05.144Z,9.83
2018-12-13T01:40:32.577Z,9.93
2018-12-13T01:43:00.033Z,12.10
2018-12-13T01:45:30.894Z,10.07
2018-12-13T01:47:58.353Z,9.55
2018-12-13T01:50:25.793Z,7.63
2018-12-13T01:52:53.331Z,8.03
2018-12-13T01:55:23.903Z,8.10
2018-12-13T01:57:51.356Z,11.20
2018-12-13T02:00:18.845Z,7.58
2018-12-13T02:02:46.332Z,8.88
2018-12-13T02:05:14.460Z,10.10
2018-12-13T02:07:41.911Z,9.10
2018-12-13T02:10:09.367Z,10.57
2018-12-13T02:12:36.838Z,9.93
2018-12-13T02:15:04.600Z,9.10
2018-12-13T02:17:32.090Z,8.80
2018-12-13T02:19:59.559Z,8.75
2018-12-13T02:22:27.040Z,8.48
2018-12-13T02:24:54.515Z,9.88
2018-12-13T02:27:25.265Z,10.27
2018-12-13T02:29:52.736Z,7.55
2018-12-13T02:32:20.188Z,9.95
2018-12-13T02:34:47.622Z,8.73
2018-12-13T02:37:18.308Z,10.80
2018-12-13T02:39:45.800Z,9.60
2018-12-13T02:42:13.275Z,9.10
2018-12-13T02:44:40.744Z,11.67
2018-12-13T02:47:11.265Z,9.30
2018-12-13T02:49:38.731Z,9.53
2018-12-13T02:52:06.190Z,9.70
2018-12-13T02:54:33.721Z,11.33
2018-12-13T02:57:04.246Z,10.18
2018-12-13T02:59:31.671Z,9.07
2018-12-13T03:01:59.164Z,9.40
2018-12-13T03:04:26.738Z,9.80
2018-12-13T03:06:57.123Z,10.13
2018-12-13T03:09:24.583Z,10.55
2018-12-13T03:11:52.056Z,10.67
2018-12-13T03:14:19.585Z,10.15
2018-12-13T03:16:50.486Z,10.50
2018-12-13T03:19:17.953Z,10.10
2018-12-13T03:21:45.399Z,11.33
2018-12-13T03:24:12.866Z,11.38
2018-12-13T03:26:43.431Z,10.43
2018-12-13T03:29:10.881Z,10.43
2018-12-13T03:31:38.361Z,10.70
2018-12-13T03:34:05.902Z,12.78
2018-12-13T03:36:37.059Z,9.70
2018-12-13T03:39:06.650Z,11.43
2018-12-13T03:41:34.177Z,12.68
2018-12-13T03:44:01.632Z,12.63
2018-12-13T03:46:32.036Z,12.13
2018-12-13T03:48:59.505Z,12.45
2018-12-13T03:51:26.951Z,13.45
2018-12-13T03:53:54.420Z,11.40
2018-12-13T03:56:25.118Z,12.60
2018-12-13T03:58:58.463Z,12.00
2018-12-13T04:01:29.236Z,11.90
2018-12-13T04:03:56.791Z,11.05
2018-12-13T04:06:27.188Z,13.15
2018-12-13T04:08:54.648Z,12.88
2018-12-13T04:11:22.089Z,12.60
2018-12-13T04:13:49.642Z,13.18
2018-12-13T04:16:20.188Z,11.80
2018-12-13T04:18:47.651Z,12.55
2018-12-13T04:21:15.103Z,13.20
2018-12-13T04:23:42.547Z,15.60
2018-12-13T04:26:13.164Z,11.95
2018-12-13T04:28:40.600Z,12.17
2018-12-13T04:31:08.064Z,14.53
2018-12-13T04:33:35.518Z,11.25
2018-12-13T04:36:05.996Z,15.98
2018-12-13T04:38:33.453Z,13.45
2018-12-13T04:41:00.953Z,12.30
2018-12-13T04:43:28.411Z,16.83
2018-12-13T04:45:59.196Z,14.87
2018-12-13T04:48:26.652Z,15.30
2018-12-13T04:50:54.187Z,16.50
2018-12-13T04:53:21.660Z,14.38
2018-12-13T04:55:52.069Z,13.98
2018-12-13T04:58:19.560Z,15.03
2018-12-13T05:00:47.085Z,15.75
2018-12-13T05:03:14.567Z,14.83
2018-12-13T05:05:45.248Z,15.13
2018-12-13T05:08:12.760Z,15.68
2018-12-13T05:10:48.779Z,13.68
2018-12-13T05:13:16.282Z,11.73
2018-12-13T05:15:46.981Z,13.78
2018-12-13T05:18:14.451Z,13.50
2018-12-13T05:20:41.918Z,13.40
2018-12-13T05:23:09.357Z,12.80
2018-12-13T05:25:40.952Z,12.73
2018-12-13T05:28:08.398Z,14.40
2018-12-13T05:30:35.863Z,14.65
2018-12-13T05:33:03.387Z,14.83
2018-12-13T05:35:34.377Z,18.23
2018-12-13T05:38:01.822Z,16.85
2018-12-13T05:40:29.292Z,17.12
2018-12-13T05:42:56.768Z,16.05
2018-12-13T05:45:27.421Z,16.45
2018-12-13T05:47:54.871Z,14.28
2018-12-13T05:50:22.328Z,17.77
2018-12-13T05:52:49.807Z,15.65
2018-12-13T05:55:23.732Z,15.85
2018-12-13T05:57:51.175Z,16.17
2018-12-13T06:00:18.728Z,17.92
2018-12-13T06:02:46.891Z,15.58
2018-12-13T06:05:15.120Z,16.65
2018-12-13T06:07:42.571Z,15.05
2018-12-13T06:10:10.011Z,18.07
2018-12-13T06:12:37.535Z,14.28
2018-12-13T06:15:06.515Z,17.55
2018-12-13T06:17:33.975Z,15.95
2018-12-13T06:20:01.465Z,13.62
2018-12-13T06:22:28.899Z,15.73
2018-12-13T06:24:56.347Z,14.95
2018-12-13T06:27:27.028Z,16.42
2018-12-13T06:29:58.851Z,17.50
2018-12-13T06:32:23.911Z,17.15
2018-12-13T06:34:51.344Z,17.48
2018-12-13T06:37:22.545Z,16.17
2018-12-13T06:39:50.019Z,18.15
2018-12-13T06:42:17.504Z,16.20
2018-12-13T06:44:44.947Z,17.73
2018-12-13T06:47:15.550Z,20.35
2018-12-13T06:49:43.025Z,16.32
2018-12-13T06:52:10.537Z,18.00
2018-12-13T06:54:38.022Z,16.20
2018-12-13T06:57:08.729Z,16.95
2018-12-13T06:59:36.287Z,20.00
2018-12-13T07:02:03.819Z,15.40
2018-12-13T07:04:31.261Z,15.40
2018-12-13T07:07:01.688Z,14.93
2018-12-13T07:09:29.143Z,17.32
2018-12-13T07:11:56.601Z,16.48
2018-12-13T07:14:24.060Z,17.57
2018-12-13T07:16:54.797Z,17.23
2018-12-13T07:19:22.253Z,19.13
2018-12-13T07:21:49.715Z,15.55
2018-12-13T07:24:17.226Z,16.80
2018-12-13T07:26:47.721Z,15.58
2018-12-13T07:29:15.177Z,15.35
2018-12-13T07:31:42.691Z,17.03
2018-12-13T07:34:10.143Z,18.52
2018-12-13T07:36:40.807Z,17.80
2018-12-13T07:39:08.259Z,17.02
2018-12-13T07:41:35.719Z,18.48
2018-12-13T07:44:03.279Z,16.25
2018-12-13T07:46:36.944Z,17.05
2018-12-13T07:49:04.427Z,16.30
2018-12-13T07:51:31.882Z,16.75
2018-12-13T07:53:59.340Z,15.70
2018-12-13T07:56:30.115Z,14.90
2018-12-13T07:58:57.647Z,17.67
2018-12-13T08:01:25.227Z,19.23
2018-12-13T08:03:52.660Z,17.87
2018-12-13T08:06:23.420Z,16.77
2018-12-13T08:08:50.872Z,20.23
2018-12-13T08:11:18.351Z,16.05
2018-12-13T08:13:45.792Z,17.62
2018-12-13T08:16:16.982Z,19.57
2018-12-13T08:18:44.411Z,17.87
2018-12-13T08:21:11.948Z,18.73
2018-12-13T08:23:39.408Z,17.55
2018-12-13T08:26:10.148Z,15.88
2018-12-13T08:28:37.609Z,23.83
2018-12-13T08:31:05.143Z,16.62
2018-12-13T08:33:32.599Z,20.57
2018-12-13T08:36:05.923Z,16.75
2018-12-13T08:38:33.463Z,18.62
2018-12-13T08:41:00.928Z,17.70
2018-12-13T08:43:28.381Z,17.85
2018-12-13T08:46:02.035Z,17.20
2018-12-13T08:48:29.514Z,16.40
2018-12-13T08:50:56.971Z,18.30
2018-12-13T08:53:24.459Z,19.90
2018-12-13T08:55:55.283Z,26.07
2018-12-13T08:58:22.763Z,15.72
2018-12-13T09:00:50.207Z,17.40
2018-12-13T09:03:17.718Z,20.48
2018-12-13T09:05:48.586Z,17.62
2018-12-13T09:08:16.044Z,18.48
2018-12-13T09:10:43.490Z,22.35
2018-12-13T09:13:10.938Z,20.43
2018-12-13T09:15:41.665Z,22.07
2018-12-13T09:18:09.111Z,19.47
2018-12-13T09:20:36.627Z,17.50
2018-12-13T09:23:04.250Z,17.12
2018-12-13T09:25:35.331Z,18.77
2018-12-13T09:28:02.807Z,14.83
2018-12-13T09:30:30.258Z,16.33
2018-12-13T09:32:57.771Z,15.33
2018-12-13T09:35:28.349Z,16.37
2018-12-13T09:37:55.817Z,18.07
2018-12-13T09:40:23.250Z,14.53
2018-12-13T09:42:51.120Z,15.93
2018-12-13T09:45:22.427Z,11.57
2018-12-13T09:47:49.970Z,17.87
2018-12-13T09:50:17.503Z,18.63
2018-12-13T09:52:44.935Z,15.40
2018-12-13T09:55:12.381Z,16.23
2018-12-13T09:57:39.925Z,18.00
2018-12-13T10:00:09.046Z,19.47
2018-12-13T10:02:36.552Z,19.03
2018-12-13T10:05:05.805Z,19.03
2018-12-13T10:07:33.233Z,19.30
2018-12-13T10:10:00.695Z,17.13
2018-12-13T10:12:28.177Z,19.77
2018-12-13T10:14:55.623Z,19.87
2018-12-13T10:17:26.517Z,18.00
2018-12-13T10:19:54.001Z,19.53
2018-12-13T10:22:21.495Z,23.50
2018-12-13T10:24:49.025Z,17.93
2018-12-13T10:27:19.488Z,19.73
2018-12-13T10:29:46.978Z,19.87
2018-12-13T10:32:14.464Z,19.80
2018-12-13T10:34:41.955Z,17.93
2018-12-13T10:37:13.612Z,17.80
2018-12-13T10:39:41.127Z,20.47
2018-12-13T10:42:08.691Z,16.63
2018-12-13T10:44:36.132Z,20.17
2018-12-13T10:47:10.303Z,13.13
2018-12-13T10:49:37.792Z,17.30
2018-12-13T10:52:14.946Z,19.60
2018-12-13T10:54:44.132Z,13.73
2018-12-13T10:57:14.525Z,17.93
2018-12-13T10:59:41.968Z,18.53
2018-12-13T11:05:17.835Z,14.75
2018-12-13T11:07:45.272Z,18.60
2018-12-13T11:10:12.776Z,18.07
2018-12-13T11:12:40.218Z,18.53
2018-12-13T11:15:07.709Z,17.13
2018-12-13T11:17:35.167Z,12.57
2018-12-13T11:20:02.636Z,16.23
2018-12-13T11:22:30.095Z,18.23
2018-12-13T11:24:57.535Z,19.90
2018-12-13T11:30:34.615Z,17.47
2018-12-13T11:33:02.065Z,19.97
2018-12-13T11:35:35.407Z,17.37
2018-12-13T11:38:09.523Z,22.53
2018-12-13T11:40:40.519Z,16.40
2018-12-13T11:43:13.665Z,14.53
2018-12-13T11:45:49.326Z,20.27
2018-12-13T11:48:22.979Z,16.65
2018-12-13T11:50:50.451Z,17.40
2018-12-13T11:53:17.932Z,18.83
2018-12-13T11:55:48.809Z,18.77
2018-12-13T11:58:16.260Z,20.20
2018-12-13T12:00:43.731Z,20.07
2018-12-13T12:03:11.273Z,19.43
2018-12-13T12:05:41.640Z,19.07
2018-12-13T12:08:09.118Z,21.03
2018-12-13T12:10:36.556Z,19.03
2018-12-13T12:13:04.076Z,18.90
2018-12-13T12:15:35.332Z,18.47
2018-12-13T12:18:02.820Z,17.10
2018-12-13T12:20:30.351Z,16.93
2018-12-13T12:23:07.454Z,16.90
2018-12-13T12:25:41.228Z,19.37
2018-12-13T12:28:12.228Z,17.93
2018-12-13T12:30:42.880Z,18.77
2018-12-13T12:33:11.221Z,21.60
2018-12-13T12:35:42.023Z,22.90
2018-12-13T12:38:09.466Z,17.00
2018-12-13T12:40:36.987Z,18.77
2018-12-13T12:43:04.452Z,21.90
2018-12-13T12:45:34.853Z,18.97
2018-12-13T12:48:02.341Z,21.60
2018-12-13T12:50:29.907Z,21.87
2018-12-13T12:52:57.365Z,20.10
2018-12-13T12:55:27.821Z,24.37
2018-12-13T12:57:55.279Z,19.63
2018-12-13T13:00:22.773Z,20.30
2018-12-13T13:02:50.365Z,20.07
2018-12-13T13:05:20.863Z,19.07
2018-12-13T13:08:00.950Z,20.10
2018-12-13T13:10:28.408Z,18.60
2018-12-13T13:12:55.892Z,17.40
2018-12-13T13:15:27.076Z,16.17
2018-12-13T13:17:54.512Z,19.13
2018-12-13T13:20:22.033Z,17.07
2018-12-13T13:22:49.482Z,15.87
2018-12-13T13:25:20.211Z,21.30
2018-12-13T13:27:47.695Z,16.63
2018-12-13T13:30:15.160Z,17.17
2018-12-13T13:32:42.610Z,20.20
2018-12-13T13:35:10.044Z,17.43
2018-12-13T13:37:37.508Z,16.73
2018-12-13T13:40:05.055Z,16.23
2018-12-13T13:42:32.509Z,17.83
2018-12-13T13:45:00.766Z,18.23
2018-12-13T13:47:33.990Z,19.27
2018-12-13T13:50:07.773Z,16.80
2018-12-13T13:52:35.235Z,17.50
2018-12-13T13:55:02.730Z,18.10
2018-12-13T13:57:40.293Z,19.33
2018-12-13T14:00:09.761Z,14.80
2018-12-13T14:02:37.191Z,16.33
2018-12-13T14:05:06.186Z,16.90
2018-12-13T14:07:33.667Z,16.93
2018-12-13T14:10:07.483Z,13.93
2018-12-13T14:12:40.656Z,20.23
2018-12-13T14:15:08.220Z,17.60
2018-12-13T14:17:38.700Z,16.07
2018-12-13T14:20:09.832Z,15.97
2018-12-13T14:22:37.288Z,20.17
2018-12-13T14:25:04.897Z,16.80
2018-12-13T14:27:32.340Z,17.33
2018-12-13T14:30:05.985Z,17.70
2018-12-13T14:32:35.291Z,16.03
2018-12-13T14:35:03.111Z,17.37
2018-12-13T14:37:32.376Z,16.53
2018-12-13T14:40:03.170Z,16.97
2018-12-13T14:42:30.661Z,14.43
2018-12-13T14:44:58.162Z,19.37
2018-12-13T14:47:28.519Z,20.43
2018-12-13T14:49:55.964Z,15.93
2018-12-13T14:52:23.414Z,17.97
2018-12-13T14:54:50.859Z,16.90
2018-12-13T14:57:19.974Z,19.17
2018-12-13T14:59:47.461Z,16.87
2018-12-13T15:02:15.145Z,11.80
2018-12-13T15:04:42.587Z,17.20
2018-12-13T15:07:11.942Z,16.17
2018-12-13T15:09:50.681Z,16.27
2018-12-13T15:12:25.146Z,17.40
2018-12-13T15:14:52.625Z,16.62
2018-12-13T15:17:23.896Z,17.37
2018-12-13T15:19:51.373Z,16.70
2018-12-13T15:22:18.817Z,16.90
2018-12-13T15:24:46.268Z,17.87
2018-12-13T15:27:17.383Z,16.55
2018-12-13T15:29:44.811Z,18.53
2018-12-13T15:32:12.343Z,18.67
2018-12-13T15:34:39.791Z,16.48
2018-12-13T15:37:11.040Z,12.90
2018-12-13T15:39:41.587Z,14.30
2018-12-13T15:42:12.094Z,17.65
2018-12-13T15:44:39.559Z,17.13
2018-12-13T15:47:10.044Z,18.30
2018-12-13T15:49:37.709Z,16.67
2018-12-13T15:52:05.211Z,16.70
2018-12-13T15:54:32.644Z,17.13
2018-12-13T15:57:03.869Z,18.13
2018-12-13T15:59:31.315Z,16.60
2018-12-13T16:01:58.798Z,17.40
2018-12-13T16:04:26.229Z,17.83
2018-12-13T16:06:56.739Z,18.43
2018-12-13T16:09:24.192Z,15.85
2018-12-13T16:11:51.679Z,14.33
2018-12-13T16:14:19.117Z,17.17
2018-12-13T16:16:50.600Z,17.53
2018-12-13T16:19:18.042Z,17.77
2018-12-13T16:21:45.575Z,15.80
2018-12-13T16:24:13.036Z,17.73
2018-12-13T16:26:43.555Z,14.50
2018-12-13T16:29:10.981Z,16.73
2018-12-13T16:31:38.499Z,17.43
2018-12-13T16:34:05.966Z,17.93
2018-12-13T16:36:37.152Z,16.43
2018-12-13T16:39:07.091Z,16.17
2018-12-13T16:41:34.656Z,15.83
2018-12-13T16:44:02.355Z,20.60
2018-12-13T16:46:32.808Z,18.07
2018-12-13T16:49:00.332Z,17.80
2018-12-13T16:51:27.851Z,17.13
2018-12-13T16:53:56.135Z,16.73
2018-12-13T16:56:27.102Z,15.03
2018-12-13T16:58:54.555Z,15.77
2018-12-13T17:01:22.016Z,18.63
2018-12-13T17:03:49.578Z,17.93
2018-12-13T17:06:20.075Z,15.32
2018-12-13T17:08:47.532Z,16.87
2018-12-13T17:11:14.990Z,14.67
2018-12-13T17:13:42.438Z,16.50
2018-12-13T17:16:13.156Z,16.23
2018-12-13T17:18:40.588Z,16.17
2018-12-13T17:21:08.051Z,16.37
2018-12-13T17:23:35.525Z,17.20
2018-12-13T17:26:06.024Z,14.35
2018-12-13T17:28:33.510Z,17.53
2018-12-13T17:31:00.995Z,15.70
2018-12-13T17:33:28.419Z,17.10
2018-12-13T17:35:58.896Z,17.10
2018-12-13T17:38:26.375Z,16.93
2018-12-13T17:40:53.820Z,17.60
2018-12-13T17:43:21.385Z,16.43
2018-12-13T17:45:51.844Z,17.63
2018-12-13T17:48:19.327Z,15.70
2018-12-13T17:50:46.767Z,18.40
2018-12-13T17:53:14.338Z,17.62
2018-12-13T17:55:44.829Z,15.70
2018-12-13T17:58:12.280Z,16.50
2018-12-13T18:00:39.724Z,16.35
2018-12-13T18:03:07.248Z,17.10
2018-12-13T18:05:40.583Z,14.45
2018-12-13T18:08:14.418Z,19.00
2018-12-13T18:10:45.285Z,18.63
2018-12-13T18:13:16.365Z,20.15
2018-12-13T18:15:46.751Z,15.50
2018-12-13T18:18:15.499Z,17.12
2018-12-13T18:20:42.985Z,17.52
2018-12-13T18:23:10.532Z,14.95
2018-12-13T18:25:40.975Z,19.48
2018-12-13T18:28:08.464Z,14.70
2018-12-13T18:30:35.900Z,15.80
2018-12-13T18:33:03.375Z,17.50
2018-12-13T18:35:33.857Z,13.80
2018-12-13T18:38:01.393Z,13.57
2018-12-13T18:40:28.916Z,14.93
2018-12-13T18:42:56.371Z,13.90
2018-12-13T18:45:29.547Z,13.00
2018-12-13T18:47:57.014Z,15.83
2018-12-13T18:50:24.456Z,13.00
2018-12-13T18:52:51.919Z,12.13
2018-12-13T18:55:22.569Z,12.83
2018-12-13T18:57:50.059Z,15.27
2018-12-13T19:00:17.505Z,14.83
2018-12-13T19:02:45.016Z,14.63
2018-12-13T19:05:12.499Z,14.30
2018-12-13T19:07:39.963Z,14.37
2018-12-13T19:10:07.468Z,16.30
2018-12-13T19:12:34.979Z,14.60
2018-12-13T19:15:03.943Z,14.75
2018-12-13T19:17:35.275Z,12.20
2018-12-13T19:20:08.656Z,14.28
2018-12-13T19:22:42.609Z,15.70
2018-12-13T19:25:11.735Z,14.28
2018-12-13T19:27:39.215Z,15.70
2018-12-13T19:30:07.334Z,15.37
2018-12-13T19:32:34.886Z,14.55
2018-12-13T19:35:02.486Z,18.42
2018-12-13T19:37:36.003Z,14.73
2018-12-13T19:40:09.538Z,15.20
2018-12-13T19:42:37.040Z,15.83
2018-12-13T19:45:05.317Z,14.33
2018-12-13T19:47:32.772Z,14.93
2018-12-13T19:50:00.284Z,14.28
2018-12-13T19:52:27.716Z,18.87
2018-12-13T19:54:57.429Z,14.28
2018-12-13T19:57:28.296Z,16.20
2018-12-13T19:59:55.776Z,17.00
2018-12-13T20:02:23.233Z,15.80
2018-12-13T20:04:50.701Z,16.50
2018-12-13T20:07:22.553Z,15.55
2018-12-13T20:09:50.023Z,17.13
2018-12-13T20:12:17.484Z,16.43
2018-12-13T20:14:44.988Z,20.87
2018-12-13T20:17:15.553Z,18.87
2018-12-13T20:19:43.010Z,16.90
2018-12-13T20:22:10.451Z,18.67
2018-12-13T20:24:37.927Z,19.00
2018-12-13T20:27:08.291Z,17.67
2018-12-13T20:29:36.013Z,17.13
2018-12-13T20:32:07.282Z,19.00
2018-12-13T20:34:34.772Z,18.23
2018-12-13T20:37:05.226Z,14.93
2018-12-13T20:39:38.588Z,17.45
2018-12-13T20:42:07.559Z,18.03
2018-12-13T20:44:35.028Z,16.93
2018-12-13T20:47:08.976Z,17.07
2018-12-13T20:49:36.455Z,17.20
2018-12-13T20:52:09.631Z,17.67
2018-12-13T20:54:43.264Z,17.10
2018-12-13T20:57:13.867Z,19.47
2018-12-13T20:59:41.324Z,20.90
2018-12-13T21:02:08.860Z,17.10
2018-12-13T21:04:36.317Z,18.37
2018-12-13T21:07:12.552Z,19.83
2018-12-13T21:09:39.991Z,18.63
2018-12-13T21:12:07.516Z,19.27
2018-12-13T21:14:34.988Z,18.53
2018-12-13T21:17:06.010Z,20.60
2018-12-13T21:19:33.564Z,20.47
2018-12-13T21:22:01.006Z,16.13
2018-12-13T21:24:29.374Z,20.57
2018-12-13T21:26:59.831Z,20.80
2018-12-13T21:29:27.923Z,17.00
2018-12-13T21:31:56.813Z,25.43
2018-12-13T21:34:25.473Z,15.60
2018-12-13T21:36:59.248Z,17.27
2018-12-13T21:39:26.733Z,17.60
2018-12-13T21:41:54.170Z,17.93
2018-12-13T21:44:21.651Z,20.20
2018-12-13T21:46:52.633Z,17.10
2018-12-13T21:49:20.112Z,19.17
2018-12-13T21:51:47.592Z,18.00
2018-12-13T21:54:15.056Z,19.83
2018-12-13T21:56:46.456Z,16.93
2018-12-13T21:59:13.916Z,17.90
2018-12-13T22:01:41.355Z,17.20
2018-12-13T22:04:08.819Z,18.97
2018-12-13T22:06:39.344Z,18.07
2018-12-13T22:09:06.845Z,17.17
2018-12-13T22:11:34.331Z,18.97
2018-12-13T22:14:01.824Z,18.87
2018-12-13T22:16:32.276Z,19.47
2018-12-13T22:18:59.793Z,16.87
2018-12-13T22:21:27.938Z,18.98
2018-12-13T22:23:55.392Z,18.75
2018-12-13T22:26:26.328Z,18.87
2018-12-13T22:28:53.825Z,18.15
2018-12-13T22:31:21.260Z,18.32
2018-12-13T22:33:48.798Z,16.77
2018-12-13T22:36:21.953Z,19.57
2018-12-13T22:38:49.427Z,20.08
2018-12-13T22:41:18.400Z,17.07
2018-12-13T22:43:45.869Z,19.60
2018-12-13T22:46:16.435Z,17.77
2018-12-13T22:48:43.894Z,18.53
2018-12-13T22:51:11.368Z,22.17
2018-12-13T22:53:38.841Z,18.73
2018-12-13T22:56:09.388Z,18.82
2018-12-13T22:58:38.124Z,21.07
2018-12-13T23:01:05.616Z,20.25
2018-12-13T23:03:33.096Z,18.95
2018-12-13T23:06:04.379Z,17.77
2018-12-13T23:08:31.808Z,18.60
2018-12-13T23:10:59.435Z,18.30
2018-12-13T23:13:26.903Z,16.63
2018-12-13T23:15:58.141Z,18.07
2018-12-13T23:18:25.597Z,22.13
2018-12-13T23:20:53.063Z,18.10
2018-12-13T23:23:20.536Z,19.17
2018-12-13T23:25:51.129Z,16.32
2018-12-13T23:28:18.635Z,16.12
2018-12-13T23:30:46.085Z,15.43
2018-12-13T23:33:13.522Z,18.33
2018-12-13T23:35:44.956Z,18.55
2018-12-13T23:38:12.418Z,18.53
2018-12-13T23:40:40.707Z,19.20
2018-12-13T23:43:08.153Z,19.23
2018-12-13T23:45:41.301Z,18.53
2018-12-13T23:48:08.787Z,18.83
2018-12-13T23:50:36.299Z,19.23
2018-12-13T23:53:04.960Z,20.80
2018-12-13T23:55:35.687Z,15.53
2018-12-13T23:58:03.120Z,17.60
